KGLE

Gainesville Municipal Airport

Gainesville, Texas, USA
METAR KGLE 191555Z AUTO 26003KT 10SM CLR 04/M01 A3028 RMK AO2 T00371013
Observed Flight Rules
Nov-19 @ 15:55 UTC (29 minutes ago) Visual Flight Rules
Wind Visibility Clouds
260° at 3 knots 10 miles
  • Clear skies
Temperatures Readings
Current 4°C / 39°F
Dewpoint -1°C / 30°F
Humidity 70%
Altimeter 30.28" Hg
Pressure 1025 hPa
Elevation 256
METAR KGLE 191555Z AUTO 26003KT 10SM CLR 04/M01 A3028 RMK AO2 T00371013
Observed Flight Rules
Nov-19 @ 15:55 UTC
(29 minutes ago)
VFR
Wind Visibility
260° at 3 knots 10 miles
Clouds
  • Clear skies
Temperature Dewpoint
4°C / 39°F -1°C / 30°F
Humidity Altimeter Pressure
70% 30.28" Hg 1025 hPa